Time;durP1;ratioP1;P1;durP2;ratioP2;P2;SDS_P1;SDS_P2;PMS_P1;PMS_P2;Temp;Humidity;BMP_temperature;BMP_pressure;BME280_temperature;BME280_humidity;BME280_pressure;Samples;Min_cycle;Max_cycle;Signal;HPM_P1;HPM_P2
2022/09/17 00:01:23;;;;;;;5.40;1.70;;;;;;;11.33;100.00;99913.70;107746;1280;70387;-84
2022/09/17 00:03:55;;;;;;;3.50;1.60;;;;;;;11.34;100.00;99911.63;107737;1273;74266;-83
2022/09/17 00:06:27;;;;;;;4.60;1.40;;;;;;;11.33;100.00;99914.56;107786;1279;62530;-84
2022/09/17 00:08:54;;;;;;;5.60;1.80;;;;;;;11.33;100.00;99923.26;107820;1270;60000;-84
2022/09/17 00:11:31;;;;;;;5.70;2.00;;;;;;;11.32;100.00;99922.31;107865;1272;75156;-84
2022/09/17 00:14:00;;;;;;;4.70;1.80;;;;;;;11.31;100.00;99917.66;108001;1270;73155;-82
2022/09/17 00:16:38;;;;;;;6.50;2.10;;;;;;;11.30;100.00;99918.71;108012;1278;74692;-82
2022/09/17 00:19:07;;;;;;;5.30;2.00;;;;;;;11.31;100.00;99916.84;107872;1279;63285;-82
2022/09/17 00:21:35;;;;;;;5.60;1.70;;;;;;;11.29;100.00;99927.69;107877;1279;61100;-82
2022/09/17 00:24:05;;;;;;;6.30;1.70;;;;;;;11.29;100.00;99925.89;107935;1280;74679;-82
2022/09/17 00:26:41;;;;;;;4.80;1.50;;;;;;;11.30;100.00;99933.73;108018;1279;71084;-83
2022/09/17 00:29:08;;;;;;;6.10;1.60;;;;;;;11.29;100.00;99936.06;108053;1278;72823;-83
2022/09/17 00:31:39;;;;;;;6.40;2.00;;;;;;;11.29;100.00;99939.16;107877;1277;61827;-83
2022/09/17 00:34:06;;;;;;;6.10;1.80;;;;;;;11.29;100.00;99935.16;107723;1280;60719;-83
2022/09/17 00:36:39;;;;;;;5.40;1.50;;;;;;;11.28;100.00;99939.45;107967;1279;75068;-83
2022/09/17 00:39:09;;;;;;;8.50;2.40;;;;;;;11.26;100.00;99939.60;107938;1279;71586;-82
2022/09/17 00:41:36;;;;;;;6.30;2.10;;;;;;;11.22;100.00;99938.57;107531;1279;72723;-82
2022/09/17 00:44:40;;;;;;;12.20;2.60;;;;;;;11.23;100.00;99933.02;107660;1281;62069;-83
2022/09/17 00:47:28;;;;;;;8.60;2.50;;;;;;;11.23;100.00;99937.39;107978;1280;60412;-82
2022/09/17 00:50:04;;;;;;;10.70;2.90;;;;;;;11.23;100.00;99938.21;107920;1280;74620;-82
2022/09/17 00:52:51;;;;;;;9.30;2.40;;;;;;;11.22;100.00;99942.45;107720;1280;72978;-83
2022/09/17 00:55:32;;;;;;;9.00;2.30;;;;;;;11.22;100.00;99940.98;107946;1280;74868;-83
2022/09/17 00:58:01;;;;;;;10.40;2.50;;;;;;;11.19;100.00;99943.05;107802;1280;62151;-82
2022/09/17 01:00:29;;;;;;;11.00;2.50;;;;;;;11.19;100.00;99941.09;108021;1280;61006;-82
2022/09/17 01:02:57;;;;;;;9.20;2.10;;;;;;;11.20;100.00;99936.64;107831;1280;75142;-83
2022/09/17 01:06:07;;;;;;;10.20;2.40;;;;;;;11.19;100.00;99942.91;107740;1281;70844;-83
2022/09/17 01:08:59;;;;;;;9.20;2.50;;;;;;;11.20;100.00;99939.83;107969;1279;74736;-83
2022/09/17 01:11:52;;;;;;;11.40;2.40;;;;;;;11.20;100.00;99943.17;107886;1280;62957;-82
2022/09/17 01:14:43;;;;;;;13.10;2.90;;;;;;;11.19;100.00;99949.66;107840;1280;60468;-83
2022/09/17 01:17:25;;;;;;;10.00;2.70;;;;;;;11.18;100.00;99950.77;107836;1279;74852;-83
2022/09/17 01:20:30;;;;;;;13.50;3.00;;;;;;;11.20;100.00;99947.80;107623;1280;72288;-84
2022/09/17 01:23:43;;;;;;;9.40;2.60;;;;;;;11.19;100.00;99946.27;107699;1280;75087;-83
2022/09/17 01:29:04;;;;;;;8.90;2.20;;;;;;;11.21;100.00;99948.77;107958;1274;59459;-83
2022/09/17 01:31:53;;;;;;;11.30;3.20;;;;;;;11.21;100.00;99941.95;107843;1277;74786;-84
2022/09/17 01:34:23;;;;;;;11.60;2.70;;;;;;;11.21;100.00;99945.19;107790;1277;70393;-83
2022/09/17 01:37:20;;;;;;;9.60;2.70;;;;;;;11.18;100.00;99948.15;107864;1278;71789;-83
2022/09/17 01:40:00;;;;;;;8.20;2.40;;;;;;;11.16;100.00;99950.95;107898;1277;62285;-83
2022/09/17 01:42:39;;;;;;;7.70;2.30;;;;;;;11.12;100.00;99959.27;107792;1279;60937;-84
2022/09/17 01:45:39;;;;;;;11.00;2.00;;;;;;;11.10;100.00;99956.89;107959;1279;76473;-83
2022/09/17 01:48:16;;;;;;;9.90;2.00;;;;;;;11.09;100.00;99958.06;107690;1274;71457;-83
2022/09/17 01:50:47;;;;;;;10.30;2.10;;;;;;;11.10;100.00;99952.71;107904;1275;73884;-83
2022/09/17 01:53:16;;;;;;;10.60;2.40;;;;;;;11.08;100.00;99960.42;107849;1277;60981;-83
2022/09/17 01:55:45;;;;;;;8.60;2.00;;;;;;;11.07;100.00;99959.28;107743;1280;62113;-82
2022/09/17 01:58:25;;;;;;;10.70;2.00;;;;;;;11.04;100.00;99974.77;107834;1278;76266;-82
2022/09/17 02:00:59;;;;;;;13.80;2.20;;;;;;;11.03;100.00;99966.89;107773;1281;71341;-83
2022/09/17 02:08:41;;;;;;;12.00;2.70;;;;;;;10.97;100.00;99978.00;107794;1271;59155;-83
2022/09/17 02:11:15;;;;;;;11.00;2.50;;;;;;;10.96;99.99;99967.38;107781;1271;74944;-83
2022/09/17 02:14:08;;;;;;;10.20;2.30;;;;;;;10.94;99.99;99969.82;107606;1272;73779;-83
2022/09/17 02:16:42;;;;;;;9.80;2.20;;;;;;;10.89;100.00;99963.84;107767;1280;72966;-83
2022/09/17 02:19:17;;;;;;;13.40;2.60;;;;;;;10.88;100.00;99969.14;107614;1281;62889;-82
2022/09/17 02:22:01;;;;;;;9.80;2.60;;;;;;;10.87;100.00;99971.20;107554;1281;59538;-83
2022/09/17 02:24:36;;;;;;;12.60;2.70;;;;;;;10.84;100.00;99976.58;107454;1281;74633;-82
2022/09/17 02:27:10;;;;;;;11.00;2.10;;;;;;;10.85;100.00;99975.07;107577;1281;72575;-83
2022/09/17 02:29:41;;;;;;;12.60;2.30;;;;;;;10.83;100.00;99975.23;107802;1280;74268;-83
2022/09/17 02:32:08;;;;;;;12.90;2.90;;;;;;;10.84;100.00;99980.05;107586;1281;62677;-82
2022/09/17 02:34:36;;;;;;;12.70;2.90;;;;;;;10.85;100.00;99986.34;107675;1281;62052;-83
2022/09/17 02:37:10;;;;;;;9.70;2.00;;;;;;;10.87;100.00;99985.17;107554;1280;74943;-82
2022/09/17 02:39:37;;;;;;;10.00;1.90;;;;;;;10.90;100.00;99987.72;107575;1281;71295;-83
2022/09/17 02:42:11;;;;;;;10.30;2.00;;;;;;;10.90;99.96;99992.30;107590;1281;71778;-83
2022/09/17 02:44:54;;;;;;;11.60;2.50;;;;;;;10.91;99.78;99986.63;107844;1280;62174;-82
2022/09/17 02:47:47;;;;;;;13.60;2.50;;;;;;;10.94;99.22;99987.95;107798;1279;61380;-81
2022/09/17 02:50:31;;;;;;;10.10;2.10;;;;;;;10.95;98.76;99987.67;107874;1280;75858;-82
2022/09/17 02:53:12;;;;;;;15.20;2.60;;;;;;;10.94;98.52;99990.52;107808;1279;71224;-82
2022/09/17 02:55:50;;;;;;;10.80;2.20;;;;;;;10.92;98.51;99994.15;107651;1281;72710;-82
2022/09/17 02:58:20;;;;;;;12.80;2.40;;;;;;;10.88;98.41;99988.77;107655;1281;62136;-82
2022/09/17 03:00:50;;;;;;;15.40;3.00;;;;;;;10.87;98.35;99992.32;107817;1280;60343;-82
2022/09/17 03:03:40;;;;;;;13.50;2.20;;;;;;;10.86;98.25;99991.17;107537;1279;75889;-82
2022/09/17 03:06:07;;;;;;;10.90;2.80;;;;;;;10.82;98.35;99995.06;107835;1279;71063;-81
2022/09/17 03:08:38;;;;;;;12.60;2.50;;;;;;;10.81;98.38;99991.46;107832;1279;72793;-81
2022/09/17 03:11:08;;;;;;;11.30;2.40;;;;;;;10.76;98.38;99993.50;107557;1281;65004;-82
2022/09/17 03:13:35;;;;;;;10.80;2.30;;;;;;;10.75;98.61;99994.31;107350;1281;60489;-81
2022/09/17 03:16:05;;;;;;;12.10;2.60;;;;;;;10.77;98.37;99987.67;107544;1279;77817;-81
2022/09/17 03:18:32;;;;;;;13.00;3.70;;;;;;;10.74;97.57;99999.73;107766;1279;71369;-81
2022/09/17 03:20:59;;;;;;;12.00;3.50;;;;;;;10.77;96.76;100000.08;107644;1279;74179;-81
2022/09/17 03:23:26;;;;;;;16.80;3.70;;;;;;;10.79;96.47;99998.71;107603;1279;63129;-81
2022/09/17 03:26:13;;;;;;;;;;;;;;;;;;;;;
2022/09/17 03:28:43;;;;;;;15.50;3.00;;;;;;;10.75;96.32;100007.18;107587;1279;75894;-81
2022/09/17 03:31:10;;;;;;;10.10;2.50;;;;;;;10.74;96.05;99999.53;107509;1281;72682;-81
2022/09/17 03:33:38;;;;;;;11.40;2.20;;;;;;;10.73;96.18;100004.06;107472;1281;74020;-81
2022/09/17 03:36:08;;;;;;;9.40;1.80;;;;;;;10.70;96.44;100001.30;107770;1279;62363;-81
2022/09/17 03:38:37;;;;;;;11.40;2.20;;;;;;;10.65;96.98;100004.15;107808;1279;60897;-81
2022/09/17 03:41:10;;;;;;;13.80;2.20;;;;;;;10.61;96.88;100009.67;107778;1279;75740;-81
2022/09/17 03:43:38;;;;;;;12.20;2.30;;;;;;;10.58;97.09;100012.54;107827;1279;71447;-81
2022/09/17 03:46:08;;;;;;;13.00;2.20;;;;;;;10.54;97.37;100010.77;107541;1279;74324;-81
2022/09/17 03:48:38;;;;;;;12.20;2.50;;;;;;;10.49;97.37;100015.65;107537;1279;62659;-81
2022/09/17 03:51:08;;;;;;;16.40;2.20;;;;;;;10.44;97.52;100014.67;107813;1279;61807;-81
2022/09/17 03:53:37;;;;;;;10.10;1.70;;;;;;;10.39;97.63;100013.69;107518;1281;75554;-80
2022/09/17 03:56:07;;;;;;;12.80;2.40;;;;;;;10.39;97.52;100015.69;107449;1279;71021;-82
2022/09/17 03:58:35;;;;;;;11.30;2.10;;;;;;;10.40;97.74;100022.05;107466;1281;72993;-82
2022/09/17 04:01:03;;;;;;;10.30;1.80;;;;;;;10.39;97.59;100021.89;107776;1279;63336;-82
2022/09/17 04:03:32;;;;;;;11.40;2.60;;;;;;;10.38;97.82;100023.10;107458;1281;61714;-83
2022/09/17 04:06:00;;;;;;;10.10;2.30;;;;;;;10.36;97.72;100020.98;107777;1279;74838;-82
2022/09/17 04:08:27;;;;;;;15.00;2.40;;;;;;;10.34;97.62;100018.75;107776;1279;72506;-82
2022/09/17 04:10:54;;;;;;;13.00;2.30;;;;;;;10.32;97.55;100024.58;107647;1279;73030;-82
2022/09/17 04:13:21;;;;;;;10.90;2.00;;;;;;;10.33;97.35;100030.69;107515;1279;60978;-81
2022/09/17 04:15:48;;;;;;;11.50;2.60;;;;;;;10.30;97.21;100028.70;107776;1279;60693;-81
2022/09/17 04:18:15;;;;;;;13.30;2.20;;;;;;;10.29;96.94;100029.33;107478;1281;76020;-80
2022/09/17 04:20:43;;;;;;;11.70;2.30;;;;;;;10.27;96.87;100037.54;107530;1279;71775;-80
2022/09/17 04:23:11;;;;;;;11.20;2.10;;;;;;;10.25;96.90;100044.86;107666;1279;73628;-79
2022/09/17 04:25:38;;;;;;;13.90;2.20;;;;;;;10.25;97.08;100045.51;107327;1281;61991;-80
2022/09/17 04:28:05;;;;;;;10.50;1.90;;;;;;;10.22;97.38;100043.47;107442;1281;59491;-80
2022/09/17 04:30:32;;;;;;;10.70;2.00;;;;;;;10.21;97.73;100044.86;107751;1279;75677;-80
2022/09/17 04:32:59;;;;;;;9.90;1.90;;;;;;;10.21;97.65;100056.27;107660;1281;71247;-80
2022/09/17 04:35:26;;;;;;;13.10;2.30;;;;;;;10.23;97.76;100056.41;107673;1279;72657;-81
2022/09/17 04:37:57;;;;;;;11.40;2.00;;;;;;;10.26;97.71;100056.64;107812;1279;63050;-81
2022/09/17 04:40:28;;;;;;;14.10;2.60;;;;;;;10.27;97.71;100060.77;107508;1281;60376;-80
2022/09/17 04:42:58;;;;;;;10.70;1.90;;;;;;;10.27;97.68;100047.88;107833;1279;73892;-80
2022/09/17 04:45:25;;;;;;;11.60;2.50;;;;;;;10.26;97.40;100050.52;107573;1279;71504;-81
2022/09/17 04:47:52;;;;;;;9.00;1.90;;;;;;;10.29;97.23;100050.02;107569;1279;73798;-81
2022/09/17 04:50:20;;;;;;;11.90;2.10;;;;;;;10.31;97.01;100053.71;107481;1281;63205;-81
2022/09/17 04:52:48;;;;;;;10.10;1.90;;;;;;;10.30;97.04;100056.80;107682;1280;60824;-81
2022/09/17 04:55:15;;;;;;;13.00;2.30;;;;;;;10.30;97.13;100048.72;107548;1279;73869;-80
2022/09/17 04:57:51;;;;;;;10.60;2.10;;;;;;;10.31;97.00;100056.23;107707;1279;72408;-81
2022/09/17 05:00:21;;;;;;;15.40;2.60;;;;;;;10.30;97.09;100052.36;107439;1279;73330;-81
2022/09/17 05:02:59;;;;;;;11.60;2.20;;;;;;;10.31;96.59;100053.87;107485;1281;61990;-81
2022/09/17 05:05:28;;;;;;;11.60;2.10;;;;;;;10.30;96.29;100062.01;107509;1281;59816;-81
2022/09/17 05:07:55;;;;;;;11.70;2.00;;;;;;;10.32;96.23;100058.87;107493;1281;73832;-81
2022/09/17 05:10:22;;;;;;;9.90;2.00;;;;;;;10.32;95.68;100064.20;107417;1281;72411;-81
2022/09/17 05:12:50;;;;;;;13.90;2.40;;;;;;;10.31;95.37;100062.65;107495;1281;72878;-81
2022/09/17 05:15:18;;;;;;;10.00;2.60;;;;;;;10.32;95.40;100063.84;107662;1281;62395;-79
2022/09/17 05:17:45;;;;;;;12.90;2.30;;;;;;;10.33;95.26;100065.48;107495;1279;60694;-80
2022/09/17 05:20:13;;;;;;;16.40;2.60;;;;;;;10.34;95.25;100068.59;107414;1281;76041;-79
2022/09/17 05:22:45;;;;;;;9.60;2.30;;;;;;;10.34;94.88;100074.14;107380;1281;72264;-79
2022/09/17 05:25:14;;;;;;;9.50;2.00;;;;;;;10.34;95.03;100076.67;107414;1279;73275;-79
2022/09/17 05:27:41;;;;;;;9.20;2.50;;;;;;;10.33;94.82;100079.84;107474;1279;62702;-79
2022/09/17 05:30:09;;;;;;;10.90;2.30;;;;;;;10.33;95.09;100075.02;107335;1281;59329;-79
2022/09/17 05:32:36;;;;;;;11.20;2.10;;;;;;;10.35;94.95;100081.33;107810;1279;75500;-82
2022/09/17 05:35:04;;;;;;;15.20;2.30;;;;;;;10.36;94.65;100084.92;107776;1270;71923;-84
2022/09/17 05:37:31;;;;;;;10.60;2.00;;;;;;;10.34;93.77;100082.45;107642;1273;191921;-78
2022/09/17 05:39:58;;;;;;;9.90;1.90;;;;;;;10.35;93.32;100086.06;107751;1279;59787;-81
2022/09/17 05:42:25;;;;;;;11.00;2.10;;;;;;;10.36;93.25;100087.37;107744;1280;60461;-81
2022/09/17 05:44:52;;;;;;;13.30;2.40;;;;;;;10.39;92.60;100082.42;107710;1279;75991;-81
2022/09/17 05:47:21;;;;;;;10.10;2.00;;;;;;;10.42;91.96;100083.10;107699;1280;71167;-81
2022/09/17 05:49:48;;;;;;;11.50;2.20;;;;;;;10.45;91.57;100087.17;107719;1279;72879;-81
2022/09/17 05:52:15;;;;;;;12.60;2.60;;;;;;;10.49;91.43;100088.10;107358;1281;61163;-80
2022/09/17 05:54:42;;;;;;;10.60;2.10;;;;;;;10.54;91.32;100093.99;107599;1280;59761;-81
2022/09/17 05:57:09;;;;;;;13.60;2.50;;;;;;;10.54;91.25;100105.45;107695;1281;75709;-81
2022/09/17 05:59:36;;;;;;;11.20;2.00;;;;;;;10.57;90.89;100101.62;107489;1281;71438;-81
2022/09/17 06:02:04;;;;;;;10.70;2.10;;;;;;;10.58;90.51;100101.45;107470;1281;73572;-82
2022/09/17 06:04:31;;;;;;;11.50;2.10;;;;;;;10.60;90.37;100093.61;107523;1280;62336;-81
2022/09/17 06:07:04;;;;;;;10.90;2.20;;;;;;;10.61;90.30;100100.95;107459;1281;60434;-82
2022/09/17 06:09:33;;;;;;;9.20;1.80;;;;;;;10.61;89.66;100110.83;107620;1280;74669;-82
2022/09/17 06:12:01;;;;;;;11.10;2.10;;;;;;;10.62;89.18;100113.95;107721;1281;71311;-82
2022/09/17 06:14:27;;;;;;;9.70;1.80;;;;;;;10.65;89.13;100113.17;107473;1282;72802;-80
2022/09/17 06:16:54;;;;;;;9.60;2.10;;;;;;;10.61;88.84;100118.42;107550;1280;62681;-84
2022/09/17 06:19:21;;;;;;;8.40;1.90;;;;;;;10.59;88.56;100110.73;107540;1280;59965;-81
2022/09/17 06:21:49;;;;;;;9.20;2.00;;;;;;;10.59;88.46;100116.66;107528;1281;75025;-81
2022/09/17 06:24:16;;;;;;;8.20;1.70;;;;;;;10.60;88.27;100120.61;107532;1280;72401;-80
2022/09/17 06:26:42;;;;;;;9.70;1.90;;;;;;;10.61;88.26;100119.13;107632;1281;73281;-80
2022/09/17 06:29:09;;;;;;;12.00;2.10;;;;;;;10.63;87.82;100118.73;107455;1281;60658;-81
2022/09/17 06:31:36;;;;;;;12.00;2.40;;;;;;;10.68;87.64;100118.58;107591;1279;60222;-79
2022/09/17 06:34:04;;;;;;;15.50;2.10;;;;;;;10.69;87.21;100120.94;106326;1281;1482417;-80
2022/09/17 06:36:31;;;;;;;11.00;2.00;;;;;;;10.67;86.88;100122.55;107642;1280;72230;-80
2022/09/17 06:38:58;;;;;;;9.80;2.00;;;;;;;10.70;86.73;100125.31;107710;1280;71813;-80
2022/09/17 06:41:25;;;;;;;9.50;1.90;;;;;;;10.70;86.17;100122.88;108059;1280;63170;-80
2022/09/17 06:43:55;;;;;;;6.20;1.80;;;;;;;10.72;85.86;100130.02;107680;1281;62060;-80
2022/09/17 06:46:22;;;;;;;11.70;1.90;;;;;;;10.73;85.52;100133.35;107587;1281;74978;-80
2022/09/17 06:48:49;;;;;;;10.10;2.10;;;;;;;10.82;85.56;100136.58;107553;1280;71311;-80
2022/09/17 06:51:17;;;;;;;8.80;2.10;;;;;;;10.86;85.11;100136.98;107512;1281;74399;-80
2022/09/17 06:53:44;;;;;;;14.50;2.40;;;;;;;10.82;84.57;100136.83;107429;1281;63551;-79
2022/09/17 06:56:11;;;;;;;13.50;2.50;;;;;;;10.83;83.90;100138.74;107631;1280;62404;-80
2022/09/17 06:58:42;;;;;;;9.20;1.90;;;;;;;10.89;83.74;100135.45;107465;1281;74746;-81
2022/09/17 07:01:11;;;;;;;8.50;1.90;;;;;;;10.87;82.94;100143.91;107554;1280;71356;-81
2022/09/17 07:03:38;;;;;;;9.80;1.80;;;;;;;10.93;83.28;100127.23;107680;1280;73845;-82
2022/09/17 07:06:11;;;;;;;11.90;2.00;;;;;;;10.93;83.05;100128.06;107640;1281;62028;-79
2022/09/17 07:08:38;;;;;;;8.50;1.90;;;;;;;11.05;83.09;100123.83;107661;1281;61091;-80
2022/09/17 07:11:05;;;;;;;9.30;1.90;;;;;;;11.14;82.66;100134.98;107623;1279;75055;-79
2022/09/17 07:13:32;;;;;;;10.50;2.10;;;;;;;11.24;82.20;100121.60;107684;1281;70635;-80
2022/09/17 07:16:01;;;;;;;11.60;1.90;;;;;;;11.33;81.59;100129.92;107595;1280;74306;-79
2022/09/17 07:18:28;;;;;;;10.20;1.80;;;;;;;11.36;80.77;100130.88;107764;1280;62417;-79
2022/09/17 07:21:11;;;;;;;10.90;2.10;;;;;;;11.46;80.83;100124.16;107508;1280;61473;-79
2022/09/17 07:23:38;;;;;;;10.10;1.90;;;;;;;11.57;80.09;100128.33;107745;1281;75152;-79
2022/09/17 07:26:12;;;;;;;12.70;2.60;;;;;;;11.67;79.45;100126.91;107484;1281;72741;-80
2022/09/17 07:28:40;;;;;;;10.80;2.20;;;;;;;11.74;79.15;100125.61;107789;1280;73023;-81
2022/09/17 07:31:07;;;;;;;11.10;1.90;;;;;;;11.80;79.35;100128.73;107749;1279;63893;-81
2022/09/17 07:33:41;;;;;;;7.20;1.40;;;;;;;11.80;78.35;100128.36;107820;1281;59674;-80
2022/09/17 07:36:10;;;;;;;8.10;1.70;;;;;;;11.84;78.37;100130.99;107459;1281;75785;-81
2022/09/17 07:38:38;;;;;;;10.30;2.40;;;;;;;11.90;78.15;100129.05;107666;1281;69933;-82
2022/09/17 07:41:16;;;;;;;14.30;2.20;;;;;;;11.97;77.75;100128.31;107759;1279;73747;-80
2022/09/17 07:43:44;;;;;;;10.50;1.90;;;;;;;12.03;77.44;100135.86;107494;1281;62358;-82
2022/09/17 07:46:15;;;;;;;11.90;2.20;;;;;;;12.01;76.81;100132.71;107453;1281;59360;-81
2022/09/17 07:48:43;;;;;;;11.10;2.20;;;;;;;12.05;75.79;100136.65;107680;1281;76057;-80
2022/09/17 07:51:16;;;;;;;7.40;1.60;;;;;;;12.07;75.52;100135.46;107529;1281;73166;-80
2022/09/17 07:53:43;;;;;;;6.20;1.90;;;;;;;11.99;74.56;100135.44;107828;1280;72947;-82
2022/09/17 07:56:10;;;;;;;7.90;1.80;;;;;;;11.97;74.62;100135.50;107674;1280;62803;-82
2022/09/17 07:58:38;;;;;;;9.60;1.90;;;;;;;12.04;74.75;100139.91;107486;1281;59127;-81
2022/09/17 08:01:10;;;;;;;8.00;1.80;;;;;;;12.14;74.36;100136.73;107558;1281;75789;-81
2022/09/17 08:03:38;;;;;;;7.90;1.70;;;;;;;12.26;74.07;100135.13;107675;1280;71635;-81
2022/09/17 08:06:11;;;;;;;7.60;1.70;;;;;;;12.32;73.26;100132.66;107449;1282;71740;-80
2022/09/17 08:08:39;;;;;;;10.10;2.30;;;;;;;12.47;73.64;100123.03;107745;1281;62206;-81
2022/09/17 08:11:08;;;;;;;7.80;1.60;;;;;;;12.56;72.26;100131.08;107489;1282;60580;-81
2022/09/17 08:13:35;;;;;;;8.50;1.90;;;;;;;12.63;71.56;100138.79;107731;1279;74477;-80
2022/09/17 08:16:06;;;;;;;9.60;2.30;;;;;;;12.65;71.36;100140.34;107656;1280;71305;-80
2022/09/17 08:18:34;;;;;;;11.20;2.20;;;;;;;12.63;71.06;100133.79;107721;1279;72359;-81
2022/09/17 08:21:05;;;;;;;10.70;2.20;;;;;;;12.71;70.76;100124.99;107546;1281;63302;-81
2022/09/17 08:23:34;;;;;;;8.80;1.80;;;;;;;12.74;70.32;100138.35;107637;1280;60537;-81
2022/09/17 08:26:02;;;;;;;12.60;2.00;;;;;;;12.74;70.45;100133.72;107680;1281;75045;-80
2022/09/17 08:28:31;;;;;;;10.10;2.10;;;;;;;12.75;70.35;100128.45;107736;1280;71446;-80
2022/09/17 08:31:05;;;;;;;8.90;1.80;;;;;;;12.73;71.01;100125.98;107703;1280;72158;-80
2022/09/17 08:33:34;;;;;;;9.80;2.10;;;;;;;12.77;70.69;100129.35;107752;1279;63309;-81
2022/09/17 08:36:01;;;;;;;11.70;2.10;;;;;;;12.92;70.75;100124.16;107508;1281;59717;-81
2022/09/17 08:38:31;;;;;;;8.60;1.60;;;;;;;13.10;70.31;100122.73;107809;1280;74945;-79
2022/09/17 08:41:09;;;;;;;11.80;1.70;;;;;;;13.16;68.82;100126.08;107875;1279;71373;-80
2022/09/17 08:43:51;;;;;;;9.60;2.10;;;;;;;13.20;67.79;100128.99;107839;1279;74474;-82
2022/09/17 08:46:18;;;;;;;8.20;2.20;;;;;;;13.32;67.94;100121.02;107763;1280;61166;-80
2022/09/17 08:49:04;;;;;;;8.40;1.70;;;;;;;13.48;67.67;100112.46;107482;1281;62511;-81
2022/09/17 08:51:45;;;;;;;8.40;1.70;;;;;;;13.64;66.70;100115.91;107759;1279;74775;-80
2022/09/17 08:54:35;;;;;;;9.90;2.10;;;;;;;13.69;65.15;100128.61;107488;1281;72278;-81
2022/09/17 08:57:28;;;;;;;9.80;1.90;;;;;;;13.77;64.81;100125.07;107746;1279;72395;-82
2022/09/17 09:00:08;;;;;;;9.50;2.00;;;;;;;13.92;64.39;100123.58;107665;1280;64612;-81
2022/09/17 09:03:02;;;;;;;10.30;2.10;;;;;;;13.86;62.85;100120.03;107717;1280;59466;-81
2022/09/17 09:05:42;;;;;;;7.90;1.80;;;;;;;14.04;64.00;100123.70;107545;1281;75183;-83
2022/09/17 09:08:36;;;;;;;8.00;1.70;;;;;;;14.27;62.88;100130.23;107926;1279;71453;-83
2022/09/17 09:11:12;;;;;;;7.30;1.50;;;;;;;14.30;62.11;100118.92;107643;1279;73397;-81
2022/09/17 09:13:46;;;;;;;8.90;1.80;;;;;;;14.33;62.23;100118.47;107732;1281;64188;-81
2022/09/17 09:16:20;;;;;;;9.30;1.90;;;;;;;14.41;62.28;100126.56;107652;1279;60660;-82
2022/09/17 09:18:51;;;;;;;7.50;1.80;;;;;;;14.33;61.01;100122.48;107698;1281;73601;-82
2022/09/17 09:21:18;;;;;;;7.80;1.50;;;;;;;14.26;60.94;100126.59;107745;1279;70613;-81
2022/09/17 09:23:57;;;;;;;12.00;2.00;;;;;;;14.16;60.83;100123.19;107433;1281;72277;-82
2022/09/17 09:26:49;;;;;;;7.90;1.80;;;;;;;14.26;61.10;100114.08;107763;1280;60988;-81
2022/09/17 09:29:41;;;;;;;8.00;1.60;;;;;;;14.41;61.18;100121.66;107743;1281;59781;-82
2022/09/17 09:32:26;;;;;;;9.50;2.30;;;;;;;14.55;60.94;100106.39;107679;1279;76351;-81
2022/09/17 09:34:54;;;;;;;7.20;1.50;;;;;;;14.71;60.01;100105.97;107791;1281;72419;-81
2022/09/17 09:37:27;;;;;;;7.10;1.50;;;;;;;14.79;58.40;100103.95;107659;1281;74066;-82
2022/09/17 09:40:03;;;;;;;8.00;1.40;;;;;;;14.92;58.89;100096.25;107957;1281;62458;-81
2022/09/17 09:42:32;;;;;;;11.90;1.50;;;;;;;14.95;57.89;100107.28;107861;1280;60727;-81
2022/09/17 09:45:05;;;;;;;8.40;1.60;;;;;;;14.81;57.01;100109.52;107548;1281;74846;-81
2022/09/17 09:48:10;;;;;;;9.10;1.60;;;;;;;14.80;57.12;100114.87;107850;1281;71170;-80
2022/09/17 09:51:09;;;;;;;9.10;1.80;;;;;;;14.92;57.74;100109.36;107129;1286;75566;-81
2022/09/17 09:54:27;;;;;;;10.20;1.70;;;;;;;14.97;57.75;100100.56;107085;1286;62044;-81
2022/09/17 09:56:57;;;;;;;9.20;1.70;;;;;;;14.92;57.02;100101.67;107026;1287;61131;-82
2022/09/17 09:59:25;;;;;;;5.20;1.30;;;;;;;14.98;56.48;100104.79;107442;1281;75750;-82
2022/09/17 10:01:51;;;;;;;10.30;1.70;;;;;;;15.06;56.45;100099.75;107753;1280;70718;-82
2022/09/17 10:04:24;;;;;;;7.20;1.60;;;;;;;15.07;55.60;100096.66;107724;1280;71924;-81
2022/09/17 10:06:53;;;;;;;9.50;1.70;;;;;;;15.26;55.89;100112.48;107699;1280;61685;-82
2022/09/17 10:09:21;;;;;;;11.80;2.30;;;;;;;15.39;54.70;100110.90;107556;1281;60887;-82
2022/09/17 10:12:02;;;;;;;6.60;1.40;;;;;;;15.49;53.83;100098.11;107696;1281;78315;-83
2022/09/17 10:14:37;;;;;;;7.70;1.70;;;;;;;15.50;54.40;100095.46;107739;1279;72326;-82
2022/09/17 10:17:18;;;;;;;8.30;1.60;;;;;;;15.61;54.42;100105.05;107766;1279;73084;-83
2022/09/17 10:20:10;;;;;;;11.30;1.60;;;;;;;15.38;51.26;100125.09;107696;1281;61837;-81
2022/09/17 10:22:43;;;;;;;7.60;1.50;;;;;;;15.21;52.68;100115.22;107658;1280;60685;-82
2022/09/17 10:25:31;;;;;;;6.30;1.70;;;;;;;15.42;52.90;100109.55;107705;1281;75570;-82
2022/09/17 10:28:03;;;;;;;6.30;1.50;;;;;;;15.49;50.82;100119.60;107696;1280;70676;-83
2022/09/17 10:30:30;;;;;;;9.50;1.50;;;;;;;15.61;50.15;100122.58;107714;1279;73160;-83
2022/09/17 10:33:16;;;;;;;6.90;1.40;;;;;;;15.78;49.69;100107.91;107687;1279;60557;-82
2022/09/17 10:35:56;;;;;;;6.20;1.20;;;;;;;16.06;49.67;100099.81;107514;1281;60873;-82
2022/09/17 10:38:27;;;;;;;8.10;1.30;;;;;;;16.30;48.29;100094.10;107678;1279;74696;-83
2022/09/17 10:41:09;;;;;;;7.80;1.50;;;;;;;16.40;47.62;100109.45;107661;1280;71556;-83
2022/09/17 10:43:36;;;;;;;7.70;1.80;;;;;;;16.32;47.20;100113.79;107651;1279;74058;-82
2022/09/17 10:46:24;;;;;;;4.90;1.20;;;;;;;16.25;47.41;100110.55;107675;1281;62331;-82
2022/09/17 10:48:57;;;;;;;7.10;1.70;;;;;;;16.23;47.49;100100.81;107910;1280;60936;-81
2022/09/17 10:51:25;;;;;;;6.50;1.40;;;;;;;16.33;47.62;100097.23;107351;1282;75000;-81
2022/09/17 10:54:34;;;;;;;6.20;1.30;;;;;;;16.45;47.04;100099.13;107811;1280;71810;-81
2022/09/17 10:57:01;;;;;;;7.30;1.50;;;;;;;16.74;46.60;100095.48;107794;1280;72473;-81
2022/09/17 10:59:39;;;;;;;6.30;1.30;;;;;;;16.91;45.89;100114.55;107693;1279;60013;-81
2022/09/17 11:02:34;;;;;;;6.90;1.20;;;;;;;16.71;44.40;100098.40;107720;1279;60549;-82
2022/09/17 11:05:32;;;;;;;7.00;1.10;;;;;;;16.27;44.51;100099.94;107812;1281;76014;-81
2022/09/17 11:08:30;;;;;;;5.40;1.50;;;;;;;16.19;44.36;100083.14;107628;1280;70714;-83
2022/09/17 11:11:09;;;;;;;4.80;1.60;;;;;;;16.32;43.63;100094.45;107625;1281;74361;-82
2022/09/17 11:13:52;;;;;;;6.30;1.30;;;;;;;16.51;44.03;100077.11;107673;1279;60489;-82
2022/09/17 11:16:27;;;;;;;6.60;1.40;;;;;;;16.53;44.07;100070.65;107424;1280;60540;-82
2022/09/17 11:19:09;;;;;;;5.50;1.20;;;;;;;16.41;44.00;100082.20;107460;1281;77199;-81
2022/09/17 11:21:44;;;;;;;6.50;1.40;;;;;;;16.26;44.53;100070.15;107637;1279;71338;-81
2022/09/17 11:24:13;;;;;;;6.00;1.20;;;;;;;16.20;45.82;100072.91;107674;1281;71393;-81
2022/09/17 11:26:50;;;;;;;3.90;0.90;;;;;;;15.92;45.64;100089.64;107458;1281;60361;-81
2022/09/17 11:29:51;;;;;;;6.90;1.10;;;;;;;15.68;46.25;100090.79;107588;1280;61716;-79
2022/09/17 11:32:42;;;;;;;5.90;0.90;;;;;;;15.53;45.50;100081.93;107608;1279;74475;-81
2022/09/17 11:35:16;;;;;;;6.80;1.30;;;;;;;15.55;45.69;100079.50;107708;1281;72416;-82
2022/09/17 11:37:48;;;;;;;5.30;1.30;;;;;;;15.59;45.87;100080.75;107508;1281;72225;-81
2022/09/17 11:40:31;;;;;;;6.20;1.10;;;;;;;15.43;46.67;100092.20;107544;1281;60357;-81
2022/09/17 11:43:25;;;;;;;4.40;1.20;;;;;;;15.21;47.77;100104.95;107726;1281;60687;-81
2022/09/17 11:46:12;;;;;;;6.00;0.90;;;;;;;14.99;48.24;100099.84;107631;1279;74523;-80
2022/09/17 11:48:54;;;;;;;5.60;1.30;;;;;;;14.87;48.81;100091.27;107591;1281;72894;-81
2022/09/17 11:51:27;;;;;;;6.30;1.20;;;;;;;14.89;48.92;100097.63;107619;1279;72969;-82
2022/09/17 11:54:22;;;;;;;7.50;1.20;;;;;;;14.89;48.47;100090.81;107563;1280;61278;-82